EDFM/MHG METAR and TAF weather

Enter ICAO airport designator
Station Type Date Time Source
EDFM METAR 2018/10/19 14:50 UTC NOAA

EDFM 191450Z 32005KT 290V360 CAVOK 20/11 Q1022


Station Type Date Time Source
EDFM Decoded METAR 2018/10/19 14:50 UTC NOAA

Baden Wurttemberg, Neuostheim, Germany (EDFM) 49-28-21N 008-30-56E
Oct 19, 2018 - 10:50 AM EDT / 2018.10.19 1450 UTC
Wind: from the NW (320 degrees) at 6 MPH (5 KT) (direction variable):0
Visibility: greater than 7 mile(s):0
Temperature: 68 F (20 C)
Dew Point: 51 F (11 C)
Relative Humidity: 56%
Pressure (altimeter): 30.18 in. Hg (1022 hPa)
ob: EDFM 191450Z 32005KT 290V360 CAVOK 20/11 Q1022
cycle: 15

Station Type Date Time Source
EDFM TAF 2012/03/06 06:30 UTC NOAA

TAF EDFM 060519Z 0606/0621 15004KT 9999 FEW040


Example: see airport list